createdAt,value
2023-03-13T00:00:56.999Z,5.27
2023-03-13T00:03:23.457Z,4.97
2023-03-13T00:05:49.885Z,4.91
2023-03-13T00:08:22.514Z,5.29
2023-03-13T00:10:48.892Z,5.00
2023-03-13T00:13:15.300Z,4.89
2023-03-13T00:15:41.707Z,5.12
2023-03-13T00:18:08.161Z,5.21
2023-03-13T00:20:34.544Z,4.72
2023-03-13T00:23:00.942Z,4.96
2023-03-13T00:25:27.498Z,4.81
2023-03-13T00:27:53.891Z,4.79
2023-03-13T00:30:20.310Z,4.57
2023-03-13T00:32:47.148Z,4.90
2023-03-13T00:35:14.631Z,5.11
2023-03-13T00:37:41.432Z,4.83
2023-03-13T00:40:08.965Z,5.11
2023-03-13T00:42:35.791Z,5.05
2023-03-13T00:45:02.571Z,5.34
2023-03-13T00:47:28.964Z,5.85
2023-03-13T00:49:55.370Z,6.14
2023-03-13T00:52:21.771Z,6.24
2023-03-13T00:54:48.147Z,6.71
2023-03-13T00:57:14.531Z,6.88
2023-03-13T00:59:40.969Z,7.03
2023-03-13T01:02:07.521Z,7.21
2023-03-13T01:04:33.988Z,7.40
2023-03-13T01:07:00.399Z,7.48
2023-03-13T01:09:26.775Z,7.52
2023-03-13T01:11:53.200Z,7.49
2023-03-13T01:14:20.446Z,7.95
2023-03-13T01:16:47.179Z,7.85
2023-03-13T01:19:15.480Z,7.62
2023-03-13T01:21:44.637Z,8.06
2023-03-13T01:24:11.861Z,7.70
2023-03-13T01:26:38.820Z,7.48
2023-03-13T01:29:05.334Z,7.99
2023-03-13T01:31:33.850Z,7.80
2023-03-13T01:34:03.047Z,8.07
2023-03-13T01:36:29.602Z,7.60
2023-03-13T01:38:58.593Z,7.93
2023-03-13T01:41:25.941Z,7.41
2023-03-13T01:43:52.416Z,7.88
2023-03-13T01:46:25.028Z,7.99
2023-03-13T01:49:03.518Z,7.92
2023-03-13T01:51:35.018Z,7.38
2023-03-13T01:54:07.774Z,7.93
2023-03-13T01:57:03.753Z,7.95
2023-03-13T01:59:40.760Z,7.90
2023-03-13T02:02:08.033Z,7.85
2023-03-13T02:04:47.074Z,7.65
2023-03-13T02:07:22.224Z,7.91
2023-03-13T02:09:52.556Z,7.76
2023-03-13T02:12:26.941Z,7.78
2023-03-13T02:14:54.770Z,7.85
2023-03-13T02:17:21.234Z,7.87
2023-03-13T02:19:51.949Z,8.10
2023-03-13T02:22:36.576Z,8.37
2023-03-13T02:25:24.380Z,8.26
2023-03-13T02:27:58.648Z,8.31
2023-03-13T02:30:25.556Z,8.28
2023-03-13T02:32:52.115Z,8.26
2023-03-13T02:35:21.168Z,8.07
2023-03-13T02:37:58.876Z,7.67
2023-03-13T02:40:30.309Z,7.73
2023-03-13T02:43:02.845Z,7.90
2023-03-13T02:45:29.250Z,8.12
2023-03-13T02:47:55.626Z,8.19
2023-03-13T02:50:23.452Z,7.87
2023-03-13T02:52:55.473Z,8.25
2023-03-13T02:55:29.712Z,8.36
2023-03-13T02:57:56.194Z,8.31
2023-03-13T03:00:26.701Z,8.21
2023-03-13T03:02:54.261Z,8.32
2023-03-13T03:05:22.143Z,8.46
2023-03-13T03:07:49.556Z,8.37
2023-03-13T03:10:16.966Z,8.67
2023-03-13T03:12:43.345Z,8.51
2023-03-13T03:15:10.267Z,8.64
2023-03-13T03:17:36.994Z,8.29
2023-03-13T03:20:07.808Z,8.36
2023-03-13T03:22:34.699Z,8.32
2023-03-13T03:25:01.190Z,8.40
2023-03-13T03:27:27.568Z,8.33
2023-03-13T03:29:53.932Z,8.17
2023-03-13T03:32:21.110Z,8.61
2023-03-13T03:34:47.515Z,8.49
2023-03-13T03:37:13.889Z,8.61
2023-03-13T03:40:02.430Z,8.97
2023-03-13T03:42:28.790Z,8.64
2023-03-13T03:44:55.212Z,8.64
2023-03-13T03:47:21.597Z,8.64
2023-03-13T03:49:48.011Z,8.64
2023-03-13T03:52:14.385Z,8.56
2023-03-13T03:54:40.928Z,8.61
2023-03-13T03:57:08.448Z,8.09
2023-03-13T03:59:34.832Z,8.45
2023-03-13T04:02:01.304Z,8.56
2023-03-13T04:04:27.917Z,8.74
2023-03-13T04:06:54.316Z,8.49
2023-03-13T04:09:25.955Z,8.71
2023-03-13T04:11:52.344Z,8.31
2023-03-13T04:14:18.720Z,8.22
2023-03-13T04:16:45.145Z,8.39
2023-03-13T04:19:11.608Z,8.35
2023-03-13T04:21:39.597Z,8.33
2023-03-13T04:24:06.288Z,8.37
2023-03-13T04:26:32.693Z,8.12
2023-03-13T04:28:59.069Z,8.00
2023-03-13T04:31:25.504Z,8.00
2023-03-13T04:33:52.190Z,7.90
2023-03-13T04:36:18.637Z,7.62
2023-03-13T04:38:46.061Z,7.75
2023-03-13T04:41:12.441Z,7.63
2023-03-13T04:43:38.834Z,7.39
2023-03-13T04:46:05.252Z,7.44
2023-03-13T04:48:31.640Z,7.95
2023-03-13T04:50:58.010Z,7.57
2023-03-13T04:53:24.422Z,7.47
2023-03-13T04:55:56.932Z,7.15
2023-03-13T04:58:23.321Z,7.19
2023-03-13T05:00:54.989Z,7.40
2023-03-13T05:03:37.752Z,7.17
2023-03-13T05:06:23.440Z,7.24
2023-03-13T05:08:49.816Z,7.05
2023-03-13T05:11:16.206Z,7.04
2023-03-13T05:13:43.578Z,7.26
2023-03-13T05:16:10.135Z,7.17
2023-03-13T05:18:36.515Z,7.18
2023-03-13T05:21:19.549Z,7.16
2023-03-13T05:23:46.051Z,7.22
2023-03-13T05:26:13.548Z,7.25
2023-03-13T05:28:39.932Z,7.50
2023-03-13T05:31:07.360Z,7.16
2023-03-13T05:33:33.873Z,7.14
2023-03-13T06:05:34.350Z,7.27
2023-03-13T06:08:01.298Z,7.26
2023-03-13T06:10:28.075Z,7.11
2023-03-13T06:12:55.868Z,7.38
2023-03-13T06:15:23.006Z,7.28
2023-03-13T06:17:49.504Z,7.29
2023-03-13T06:20:15.960Z,7.25
2023-03-13T06:22:42.663Z,7.30
2023-03-13T06:25:09.376Z,7.06
2023-03-13T06:27:35.777Z,7.14
2023-03-13T06:30:02.948Z,7.34
2023-03-13T06:32:29.496Z,7.17
2023-03-13T06:34:55.958Z,7.32
2023-03-13T06:37:22.353Z,7.31
2023-03-13T06:39:48.719Z,7.42
2023-03-13T06:42:15.087Z,7.45
2023-03-13T06:44:41.854Z,7.38
2023-03-13T06:47:08.325Z,7.42
2023-03-13T06:49:34.761Z,7.65
2023-03-13T06:52:01.260Z,7.55
2023-03-13T06:54:27.926Z,7.77
2023-03-13T06:56:54.422Z,7.75
2023-03-13T06:59:20.793Z,7.66
2023-03-13T07:01:47.235Z,7.76
2023-03-13T07:04:14.042Z,7.91
2023-03-13T07:06:40.547Z,7.93
2023-03-13T07:09:07.009Z,7.96
2023-03-13T07:11:33.507Z,7.89
2023-03-13T07:14:15.372Z,7.91
2023-03-13T07:16:43.692Z,7.42
2023-03-13T07:19:10.212Z,8.01
2023-03-13T07:21:36.646Z,7.96
2023-03-13T07:24:03.227Z,7.70
2023-03-13T07:26:48.573Z,7.77
2023-03-13T07:29:20.824Z,7.74
2023-03-13T07:31:47.255Z,7.72
2023-03-13T07:34:13.703Z,7.75
2023-03-13T07:36:41.592Z,7.94
2023-03-13T07:39:08.466Z,7.72
2023-03-13T07:41:34.933Z,7.99
2023-03-13T07:44:01.317Z,8.01
2023-03-13T07:46:27.924Z,8.01
2023-03-13T07:48:55.194Z,8.20
2023-03-13T07:51:36.789Z,8.09
2023-03-13T07:54:07.141Z,7.72
2023-03-13T07:56:33.557Z,7.63
2023-03-13T07:58:59.948Z,7.89
2023-03-13T08:01:30.306Z,8.23
2023-03-13T08:03:58.547Z,8.20
2023-03-13T08:06:26.445Z,8.10
2023-03-13T08:08:53.703Z,8.40
2023-03-13T08:11:24.313Z,8.64
2023-03-13T08:13:51.186Z,8.56
2023-03-13T08:16:19.694Z,9.04
2023-03-13T08:18:49.077Z,9.38
2023-03-13T08:21:23.344Z,9.23
2023-03-13T08:23:53.585Z,9.41
2023-03-13T08:26:22.078Z,9.67
2023-03-13T08:28:53.097Z,9.90
2023-03-13T08:31:24.992Z,9.73
2023-03-13T08:33:56.375Z,9.39
2023-03-13T08:36:25.051Z,10.06
2023-03-13T08:38:57.879Z,10.28
2023-03-13T08:41:26.397Z,10.57
2023-03-13T08:43:53.278Z,10.76
2023-03-13T08:46:20.084Z,10.88
2023-03-13T08:48:54.371Z,11.41
2023-03-13T08:51:23.625Z,11.73
2023-03-13T08:53:51.215Z,11.75
2023-03-13T08:56:20.549Z,12.01
2023-03-13T08:59:01.184Z,12.28
2023-03-13T09:01:30.364Z,12.26
2023-03-13T09:03:57.850Z,12.40
2023-03-13T09:06:24.443Z,12.64
2023-03-13T09:08:50.886Z,12.50
2023-03-13T09:11:20.396Z,12.66
2023-03-13T09:13:49.268Z,12.66
2023-03-13T09:16:21.401Z,12.62
2023-03-13T09:18:49.147Z,12.62
2023-03-13T09:21:23.884Z,12.87
2023-03-13T09:23:51.261Z,12.65
2023-03-13T09:26:21.006Z,12.76
2023-03-13T09:28:49.367Z,12.57
2023-03-13T09:31:34.411Z,13.09
2023-03-13T09:34:01.158Z,13.03
2023-03-13T09:36:28.464Z,13.10
2023-03-13T09:38:57.454Z,13.34
2023-03-13T09:41:40.635Z,13.37
2023-03-13T09:44:29.121Z,13.59
2023-03-13T09:46:58.504Z,13.49
2023-03-13T09:49:44.064Z,13.42
2023-03-13T09:52:31.469Z,13.47
2023-03-13T09:55:06.174Z,13.74
2023-03-13T09:57:35.955Z,13.88
2023-03-13T10:00:12.765Z,13.63
2023-03-13T10:02:40.281Z,13.88
2023-03-13T10:05:06.587Z,14.04
2023-03-13T10:07:32.997Z,13.80
2023-03-13T10:10:01.401Z,13.76
2023-03-13T10:12:32.681Z,14.13
2023-03-13T10:15:20.411Z,13.99
2023-03-13T10:17:46.939Z,14.03
2023-03-13T10:20:28.194Z,14.19
2023-03-13T10:23:00.527Z,14.14
2023-03-13T10:25:32.180Z,14.55
2023-03-13T10:27:58.938Z,14.72
2023-03-13T10:30:31.724Z,14.73
2023-03-13T10:33:22.079Z,14.67
2023-03-13T10:36:00.440Z,14.84
2023-03-13T10:38:26.855Z,14.91
2023-03-13T10:41:18.846Z,15.05
2023-03-13T10:43:54.351Z,15.28
2023-03-13T10:46:29.442Z,14.75
2023-03-13T10:49:01.658Z,15.17
2023-03-13T10:51:40.420Z,15.32
2023-03-13T10:54:21.970Z,14.89
2023-03-13T10:56:49.762Z,14.35
2023-03-13T10:59:24.900Z,14.88
2023-03-13T11:01:52.988Z,14.48
2023-03-13T11:04:34.809Z,14.51
2023-03-13T11:07:04.469Z,14.95
2023-03-13T11:09:32.229Z,14.67
2023-03-13T11:12:24.106Z,14.88
2023-03-13T11:14:57.805Z,15.04
2023-03-13T11:17:29.477Z,15.51
2023-03-13T11:20:05.794Z,15.48
2023-03-13T11:22:45.891Z,15.47
2023-03-13T11:25:20.699Z,15.87
2023-03-13T11:28:21.115Z,15.60
2023-03-13T11:31:02.973Z,15.82
2023-03-13T11:33:38.710Z,15.81
2023-03-13T11:36:18.800Z,15.86
2023-03-13T11:39:11.988Z,15.91
2023-03-13T11:42:03.007Z,15.90
2023-03-13T11:44:51.816Z,15.90
2023-03-13T11:47:42.506Z,15.70
2023-03-13T11:50:19.621Z,15.71
2023-03-13T11:53:22.796Z,15.79
2023-03-13T11:56:06.421Z,15.69
2023-03-13T11:58:35.745Z,15.43
2023-03-13T12:01:31.578Z,15.52
2023-03-13T12:04:15.654Z,15.09
2023-03-13T12:06:49.844Z,15.47
2023-03-13T12:09:20.325Z,15.88
2023-03-13T12:12:04.586Z,15.96
2023-03-13T12:14:49.395Z,16.02
2023-03-13T12:17:39.155Z,16.41
2023-03-13T12:20:26.615Z,16.10
2023-03-13T12:23:08.139Z,16.56
2023-03-13T12:26:01.192Z,16.93
2023-03-13T12:28:45.618Z,16.76
2023-03-13T12:31:30.968Z,16.76
2023-03-13T12:34:15.010Z,16.86
2023-03-13T12:36:55.694Z,16.65
2023-03-13T12:39:24.796Z,16.54
2023-03-13T12:42:31.370Z,16.50
2023-03-13T12:44:59.293Z,16.67
2023-03-13T12:47:34.326Z,16.73
2023-03-13T12:50:36.640Z,17.03
2023-03-13T12:53:20.436Z,16.73
2023-03-13T12:56:21.896Z,16.91
2023-03-13T12:59:15.430Z,17.11
2023-03-13T13:01:51.079Z,17.14
2023-03-13T13:04:23.771Z,17.42
2023-03-13T13:06:55.918Z,17.35
2023-03-13T13:09:30.781Z,17.14
2023-03-13T13:12:22.368Z,17.28
2023-03-13T13:14:50.087Z,17.63
2023-03-13T13:17:20.688Z,17.54
2023-03-13T13:19:47.874Z,17.81
2023-03-13T13:22:37.408Z,17.98
2023-03-13T13:25:17.919Z,18.27
2023-03-13T13:27:44.357Z,18.19
2023-03-13T13:30:19.582Z,18.38
2023-03-13T13:32:55.478Z,18.56
2023-03-13T13:35:30.828Z,18.48
2023-03-13T13:38:19.046Z,18.72
2023-03-13T13:40:58.901Z,18.33
2023-03-13T13:43:25.570Z,18.01
2023-03-13T13:46:07.222Z,17.81
2023-03-13T13:48:43.569Z,18.14
2023-03-13T13:51:23.933Z,18.39
2023-03-13T13:53:56.869Z,18.34
2023-03-13T13:56:32.507Z,18.48
2023-03-13T13:59:05.413Z,18.30
2023-03-13T14:01:33.917Z,18.13
2023-03-13T14:04:27.862Z,18.14
2023-03-13T14:06:59.145Z,18.52
2023-03-13T14:09:41.774Z,18.41
2023-03-13T14:12:36.171Z,18.58
2023-03-13T14:15:17.484Z,18.76
2023-03-13T14:17:55.099Z,19.10
2023-03-13T14:20:31.387Z,19.15
2023-03-13T14:23:02.345Z,19.09
2023-03-13T14:25:42.776Z,19.13
2023-03-13T14:28:23.527Z,19.30
2023-03-13T14:30:53.108Z,19.45
2023-03-13T14:33:21.063Z,19.24
2023-03-13T14:35:50.334Z,19.32
2023-03-13T14:38:25.985Z,19.40
2023-03-13T14:40:55.399Z,19.25
2023-03-13T14:43:33.722Z,19.53
2023-03-13T14:46:14.258Z,19.30
2023-03-13T14:48:42.106Z,19.10
2023-03-13T14:51:16.069Z,19.14
2023-03-13T14:54:01.182Z,19.19
2023-03-13T14:56:34.927Z,19.18
2023-03-13T14:59:09.038Z,19.17
2023-03-13T15:01:35.485Z,19.14
2023-03-13T15:04:01.915Z,19.01
2023-03-13T15:06:28.925Z,19.06
2023-03-13T15:09:17.586Z,18.92
2023-03-13T15:12:05.727Z,19.02
2023-03-13T15:14:38.024Z,19.11
2023-03-13T15:17:21.398Z,19.18
2023-03-13T15:19:54.106Z,19.10
2023-03-13T15:22:27.229Z,19.60
2023-03-13T15:25:05.674Z,19.41
2023-03-13T15:27:34.103Z,19.54
2023-03-13T15:30:00.725Z,19.47
2023-03-13T15:32:37.343Z,19.28
2023-03-13T15:35:23.151Z,19.31
2023-03-13T15:37:50.673Z,18.94
2023-03-13T15:40:17.690Z,19.09
2023-03-13T15:42:44.180Z,18.39
2023-03-13T15:45:12.009Z,18.78
2023-03-13T15:47:38.430Z,18.53
2023-03-13T15:50:06.911Z,18.94
2023-03-13T15:52:36.517Z,18.70
2023-03-13T15:55:07.240Z,18.38
2023-03-13T15:57:42.389Z,18.67
2023-03-13T16:00:34.766Z,18.60
2023-03-13T16:03:01.290Z,18.47
2023-03-13T16:05:28.999Z,18.47
2023-03-13T16:07:56.467Z,18.32
2023-03-13T16:10:27.290Z,18.26
2023-03-13T16:12:57.869Z,18.26
2023-03-13T16:15:24.573Z,18.24
2023-03-13T16:17:50.969Z,17.97
2023-03-13T16:20:20.888Z,17.80
2023-03-13T16:22:50.661Z,17.80
2023-03-13T16:25:18.801Z,17.61
2023-03-13T16:27:46.237Z,17.15
2023-03-13T16:30:26.897Z,16.95
2023-03-13T16:32:53.616Z,16.63
2023-03-13T16:35:21.740Z,16.59
2023-03-13T16:37:57.724Z,16.72
2023-03-13T16:40:33.007Z,16.07
2023-03-13T16:43:00.423Z,16.15
2023-03-13T16:45:27.601Z,15.87
2023-03-13T16:47:54.257Z,15.71
2023-03-13T16:50:23.376Z,15.33
2023-03-13T16:53:07.161Z,14.88
2023-03-13T16:55:38.634Z,14.67
2023-03-13T16:58:05.537Z,14.71
2023-03-13T17:00:32.650Z,14.57
2023-03-13T17:02:59.702Z,14.27
2023-03-13T17:05:27.691Z,13.95
2023-03-13T17:08:01.233Z,13.57
2023-03-13T17:10:31.832Z,13.49
2023-03-13T17:13:05.448Z,13.18
2023-03-13T17:15:32.039Z,12.99
2023-03-13T17:18:04.718Z,12.89
2023-03-13T17:20:31.171Z,12.89
2023-03-13T17:23:01.226Z,13.06
2023-03-13T17:25:31.328Z,12.72
2023-03-13T17:27:57.748Z,12.19
2023-03-13T17:30:28.318Z,12.21
2023-03-13T17:32:54.823Z,11.86
2023-03-13T17:35:22.221Z,11.97
2023-03-13T17:37:49.429Z,11.65
2023-03-13T17:40:20.999Z,11.28
2023-03-13T17:42:52.664Z,11.18
2023-03-13T17:45:19.523Z,10.76
2023-03-13T17:47:46.969Z,10.65
2023-03-13T17:50:24.131Z,10.59
2023-03-13T17:52:50.510Z,10.38
2023-03-13T17:55:18.316Z,10.09
2023-03-13T17:57:49.480Z,9.99
2023-03-13T18:00:24.018Z,9.80
2023-03-13T18:02:50.595Z,9.46
2023-03-13T18:05:17.523Z,9.24
2023-03-13T18:07:44.390Z,9.46
2023-03-13T18:10:19.441Z,9.22
2023-03-13T18:12:56.033Z,8.95
2023-03-13T18:15:25.132Z,8.93
2023-03-13T18:17:52.116Z,8.92
2023-03-13T18:20:25.005Z,8.96
2023-03-13T18:22:51.623Z,8.66
2023-03-13T18:25:18.181Z,8.64
2023-03-13T18:27:44.628Z,8.71
2023-03-13T18:30:20.788Z,8.49
2023-03-13T18:32:47.833Z,8.10
2023-03-13T18:35:15.734Z,8.39
2023-03-13T18:37:46.984Z,8.17
2023-03-13T18:40:23.133Z,8.44
2023-03-13T18:42:50.149Z,8.21
2023-03-13T18:45:19.637Z,8.46
2023-03-13T18:47:48.036Z,8.25
2023-03-13T18:50:29.838Z,8.22
2023-03-13T18:52:58.604Z,8.04
2023-03-13T18:55:26.890Z,8.02
2023-03-13T18:57:56.489Z,7.73
2023-03-13T19:00:28.943Z,8.30
2023-03-13T19:02:55.600Z,8.00
2023-03-13T19:05:22.591Z,8.10
2023-03-13T19:07:49.043Z,8.13
2023-03-13T19:10:24.122Z,7.94
2023-03-13T19:12:50.837Z,7.84
2023-03-13T19:23:09.590Z,7.02
2023-03-13T19:25:35.999Z,6.87
2023-03-13T19:28:02.539Z,6.85
2023-03-13T19:30:38.045Z,5.46
2023-03-13T19:33:04.544Z,5.36
2023-03-13T19:35:31.136Z,6.43
2023-03-13T19:37:57.613Z,5.26
2023-03-13T19:40:28.639Z,6.55
2023-03-13T19:42:55.112Z,6.29
2023-03-13T19:45:29.345Z,6.21
2023-03-13T19:47:55.820Z,5.65
2023-03-13T19:50:27.506Z,6.34
2023-03-13T19:52:54.035Z,5.31
2023-03-13T19:55:21.548Z,5.90
2023-03-13T19:58:06.654Z,6.31
2023-03-13T20:00:33.268Z,6.25
2023-03-13T20:03:15.647Z,3.21
2023-03-13T20:05:44.482Z,6.04
2023-03-13T20:08:10.971Z,6.19
2023-03-13T20:23:40.594Z,6.39
2023-03-13T20:26:09.909Z,6.43
2023-03-13T20:28:37.624Z,6.59
2023-03-13T20:31:04.753Z,6.69
2023-03-13T20:33:31.324Z,6.54
2023-03-13T20:36:00.366Z,6.47
2023-03-13T20:38:27.233Z,6.66
2023-03-13T20:40:55.239Z,6.85
2023-03-13T20:43:22.442Z,6.87
2023-03-13T20:45:49.217Z,6.71
2023-03-13T20:48:16.440Z,6.72
2023-03-13T20:50:43.268Z,6.87
2023-03-13T20:53:11.124Z,6.69
2023-03-13T20:55:38.482Z,6.41
2023-03-13T20:58:21.540Z,6.41
2023-03-13T21:00:48.497Z,6.40
2023-03-13T21:03:17.208Z,6.43
2023-03-13T21:05:45.675Z,6.26
2023-03-13T21:08:12.060Z,6.25
2023-03-13T21:10:39.922Z,6.52
2023-03-13T21:13:09.012Z,6.49
2023-03-13T21:15:35.754Z,6.43
2023-03-13T21:18:02.543Z,6.30
2023-03-13T21:20:30.554Z,6.55
2023-03-13T21:22:57.071Z,6.23
2023-03-13T21:25:23.871Z,6.27
2023-03-13T21:27:50.611Z,6.59
2023-03-13T21:30:20.571Z,6.67
2023-03-13T21:32:47.862Z,6.45
2023-03-13T21:35:15.075Z,6.87
2023-03-13T21:37:51.372Z,6.88
2023-03-13T21:40:18.182Z,6.79
2023-03-13T21:42:50.857Z,6.95
2023-03-13T21:45:17.281Z,7.97
2023-03-13T21:47:43.632Z,9.12
2023-03-13T21:50:10.970Z,10.01
2023-03-13T21:52:40.862Z,10.72
2023-03-13T21:55:10.919Z,10.79
2023-03-13T21:57:37.349Z,10.58
2023-03-13T22:00:07.906Z,10.34
2023-03-13T22:02:37.710Z,10.31
2023-03-13T22:05:05.126Z,10.35
2023-03-13T22:07:31.646Z,10.11
2023-03-13T22:09:59.150Z,10.06
2023-03-13T22:12:26.374Z,10.18
2023-03-13T22:14:53.264Z,9.97
2023-03-13T22:17:20.484Z,9.61
2023-03-13T22:19:47.182Z,9.93
2023-03-13T22:22:14.044Z,10.08
2023-03-13T22:24:40.488Z,9.65
2023-03-13T22:27:09.011Z,9.81
2023-03-13T22:29:36.207Z,9.94
2023-03-13T22:32:03.277Z,10.18
2023-03-13T22:34:30.018Z,10.46
2023-03-13T22:36:56.521Z,10.27
2023-03-13T22:39:23.074Z,10.06
2023-03-13T22:41:49.569Z,10.21
2023-03-13T22:44:16.992Z,10.18
2023-03-13T22:46:43.405Z,10.16
2023-03-13T22:49:09.869Z,9.82
2023-03-13T22:51:36.236Z,9.76
2023-03-13T22:54:02.664Z,9.47
2023-03-13T22:56:29.033Z,9.35
2023-03-13T22:58:55.462Z,9.42
2023-03-13T23:01:22.822Z,9.47
2023-03-13T23:03:51.327Z,9.47
2023-03-13T23:06:21.199Z,9.40
2023-03-13T23:08:47.880Z,9.51
2023-03-13T23:11:17.254Z,9.37
2023-03-13T23:13:43.850Z,9.29
2023-03-13T23:16:11.778Z,9.14
2023-03-13T23:18:42.639Z,9.23
2023-03-13T23:21:11.870Z,9.43
2023-03-13T23:23:38.626Z,9.58
2023-03-13T23:26:08.620Z,9.51
2023-03-13T23:28:36.617Z,9.21
2023-03-13T23:31:17.322Z,9.48
2023-03-13T23:33:43.950Z,9.40
2023-03-13T23:36:13.813Z,9.53
2023-03-13T23:38:40.420Z,9.40
2023-03-13T23:41:08.692Z,9.35
2023-03-13T23:43:35.498Z,9.35
2023-03-13T23:46:02.091Z,9.37
2023-03-13T23:48:28.516Z,9.26
2023-03-13T23:50:55.067Z,9.38
2023-03-13T23:53:21.530Z,9.26
2023-03-13T23:55:47.953Z,9.43
2023-03-13T23:58:14.321Z,9.59
